sensor_id;sensor_type;location;lat;lon;timestamp;P1;durP1;ratioP1;P2;durP2;ratioP2
3347;SDS011;1687;49.540;8.574;2023-02-26T00:01:10;7.93;;;2.03;;
3347;SDS011;1687;49.540;8.574;2023-02-26T00:03:38;2.73;;;2.13;;
3347;SDS011;1687;49.540;8.574;2023-02-26T00:06:04;4.30;;;1.67;;
3347;SDS011;1687;49.540;8.574;2023-02-26T00:08:30;4.23;;;2.30;;
3347;SDS011;1687;49.540;8.574;2023-02-26T00:10:56;3.07;;;1.53;;
3347;SDS011;1687;49.540;8.574;2023-02-26T00:13:25;1.57;;;1.00;;
3347;SDS011;1687;49.540;8.574;2023-02-26T00:15:55;12.03;;;2.30;;
3347;SDS011;1687;49.540;8.574;2023-02-26T00:18:26;6.00;;;1.53;;
3347;SDS011;1687;49.540;8.574;2023-02-26T00:20:52;3.60;;;2.13;;
3347;SDS011;1687;49.540;8.574;2023-02-26T00:23:19;4.47;;;2.23;;
3347;SDS011;1687;49.540;8.574;2023-02-26T00:25:45;3.97;;;2.13;;
3347;SDS011;1687;49.540;8.574;2023-02-26T00:28:11;1.40;;;1.00;;
3347;SDS011;1687;49.540;8.574;2023-02-26T00:30:37;1.80;;;1.30;;
3347;SDS011;1687;49.540;8.574;2023-02-26T00:33:04;5.33;;;2.47;;
3347;SDS011;1687;49.540;8.574;2023-02-26T00:35:30;10.53;;;2.13;;
3347;SDS011;1687;49.540;8.574;2023-02-26T00:40:44;3.90;;;2.67;;
3347;SDS011;1687;49.540;8.574;2023-02-26T00:43:18;13.00;;;1.87;;
3347;SDS011;1687;49.540;8.574;2023-02-26T00:45:53;1.97;;;1.30;;
3347;SDS011;1687;49.540;8.574;2023-02-26T00:54:13;3.10;;;1.50;;
3347;SDS011;1687;49.540;8.574;2023-02-26T00:56:50;5.27;;;3.00;;
3347;SDS011;1687;49.540;8.574;2023-02-26T00:59:17;5.27;;;1.83;;
3347;SDS011;1687;49.540;8.574;2023-02-26T01:01:44;3.70;;;2.20;;
3347;SDS011;1687;49.540;8.574;2023-02-26T01:04:10;3.13;;;2.03;;
3347;SDS011;1687;49.540;8.574;2023-02-26T01:06:42;6.17;;;2.50;;
3347;SDS011;1687;49.540;8.574;2023-02-26T01:11:55;2.90;;;2.00;;
3347;SDS011;1687;49.540;8.574;2023-02-26T01:14:25;8.77;;;4.20;;
3347;SDS011;1687;49.540;8.574;2023-02-26T01:17:02;2.53;;;1.57;;
3347;SDS011;1687;49.540;8.574;2023-02-26T01:22:36;3.67;;;2.33;;
3347;SDS011;1687;49.540;8.574;2023-02-26T01:25:26;3.10;;;1.93;;
3347;SDS011;1687;49.540;8.574;2023-02-26T01:28:01;3.10;;;1.97;;
3347;SDS011;1687;49.540;8.574;2023-02-26T01:30:27;2.20;;;1.37;;
3347;SDS011;1687;49.540;8.574;2023-02-26T01:35:47;2.80;;;1.63;;
3347;SDS011;1687;49.540;8.574;2023-02-26T01:38:38;5.17;;;2.07;;
3347;SDS011;1687;49.540;8.574;2023-02-26T01:47:29;4.50;;;2.80;;
3347;SDS011;1687;49.540;8.574;2023-02-26T01:50:35;22.40;;;2.13;;
3347;SDS011;1687;49.540;8.574;2023-02-26T01:55:53;4.17;;;2.07;;
3347;SDS011;1687;49.540;8.574;2023-02-26T01:58:25;1.80;;;1.27;;
3347;SDS011;1687;49.540;8.574;2023-02-26T02:00:55;2.57;;;2.10;;
3347;SDS011;1687;49.540;8.574;2023-02-26T02:03:21;1.80;;;1.30;;
3347;SDS011;1687;49.540;8.574;2023-02-26T02:06:01;2.67;;;1.60;;
3347;SDS011;1687;49.540;8.574;2023-02-26T02:08:31;1.50;;;1.00;;
3347;SDS011;1687;49.540;8.574;2023-02-26T02:11:00;3.17;;;1.40;;
3347;SDS011;1687;49.540;8.574;2023-02-26T02:16:39;6.77;;;1.57;;
3347;SDS011;1687;49.540;8.574;2023-02-26T02:22:39;1.90;;;1.30;;
3347;SDS011;1687;49.540;8.574;2023-02-26T02:28:24;2.53;;;1.30;;
3347;SDS011;1687;49.540;8.574;2023-02-26T02:31:44;5.33;;;2.43;;
3347;SDS011;1687;49.540;8.574;2023-02-26T02:37:17;3.30;;;1.77;;
3347;SDS011;1687;49.540;8.574;2023-02-26T02:39:59;1.93;;;1.53;;
3347;SDS011;1687;49.540;8.574;2023-02-26T02:42:43;2.27;;;1.47;;
3347;SDS011;1687;49.540;8.574;2023-02-26T02:45:43;7.10;;;1.80;;
3347;SDS011;1687;49.540;8.574;2023-02-26T02:48:21;2.03;;;1.27;;
3347;SDS011;1687;49.540;8.574;2023-02-26T02:51:03;2.30;;;1.53;;
3347;SDS011;1687;49.540;8.574;2023-02-26T02:53:35;2.13;;;1.57;;
3347;SDS011;1687;49.540;8.574;2023-02-26T02:56:11;6.67;;;2.03;;
3347;SDS011;1687;49.540;8.574;2023-02-26T02:58:49;4.17;;;2.03;;
3347;SDS011;1687;49.540;8.574;2023-02-26T03:01:20;2.37;;;2.00;;
3347;SDS011;1687;49.540;8.574;2023-02-26T03:03:58;1.93;;;1.17;;
3347;SDS011;1687;49.540;8.574;2023-02-26T03:06:32;2.47;;;2.00;;
3347;SDS011;1687;49.540;8.574;2023-02-26T03:08:59;3.70;;;1.73;;
3347;SDS011;1687;49.540;8.574;2023-02-26T03:11:28;3.87;;;2.00;;
3347;SDS011;1687;49.540;8.574;2023-02-26T03:13:55;3.10;;;1.67;;
3347;SDS011;1687;49.540;8.574;2023-02-26T03:30:54;3.03;;;1.90;;
3347;SDS011;1687;49.540;8.574;2023-02-26T03:33:33;3.67;;;1.63;;
3347;SDS011;1687;49.540;8.574;2023-02-26T03:36:34;4.33;;;2.30;;
3347;SDS011;1687;49.540;8.574;2023-02-26T03:39:15;3.90;;;2.07;;
3347;SDS011;1687;49.540;8.574;2023-02-26T03:41:48;1.70;;;1.30;;
3347;SDS011;1687;49.540;8.574;2023-02-26T03:44:24;3.07;;;2.50;;
3347;SDS011;1687;49.540;8.574;2023-02-26T03:46:57;1.60;;;1.10;;
3347;SDS011;1687;49.540;8.574;2023-02-26T03:49:35;1.97;;;1.57;;
3347;SDS011;1687;49.540;8.574;2023-02-26T03:52:10;4.40;;;2.80;;
3347;SDS011;1687;49.540;8.574;2023-02-26T03:54:38;2.57;;;1.83;;
3347;SDS011;1687;49.540;8.574;2023-02-26T03:57:09;2.10;;;1.27;;
3347;SDS011;1687;49.540;8.574;2023-02-26T03:59:35;3.10;;;2.20;;
3347;SDS011;1687;49.540;8.574;2023-02-26T04:02:02;1.77;;;1.33;;
3347;SDS011;1687;49.540;8.574;2023-02-26T04:04:43;3.33;;;1.70;;
3347;SDS011;1687;49.540;8.574;2023-02-26T04:07:23;3.27;;;2.37;;
3347;SDS011;1687;49.540;8.574;2023-02-26T04:09:50;14.30;;;2.67;;
3347;SDS011;1687;49.540;8.574;2023-02-26T04:12:23;2.33;;;1.70;;
3347;SDS011;1687;49.540;8.574;2023-02-26T04:14:50;2.70;;;1.70;;
3347;SDS011;1687;49.540;8.574;2023-02-26T04:17:16;1.50;;;1.13;;
3347;SDS011;1687;49.540;8.574;2023-02-26T04:19:42;4.93;;;2.47;;
3347;SDS011;1687;49.540;8.574;2023-02-26T04:22:08;2.30;;;1.73;;
3347;SDS011;1687;49.540;8.574;2023-02-26T04:24:34;8.30;;;1.93;;
3347;SDS011;1687;49.540;8.574;2023-02-26T04:27:00;10.53;;;2.90;;
3347;SDS011;1687;49.540;8.574;2023-02-26T04:29:26;2.30;;;1.40;;
3347;SDS011;1687;49.540;8.574;2023-02-26T04:31:52;1.60;;;1.37;;
3347;SDS011;1687;49.540;8.574;2023-02-26T04:34:18;1.60;;;1.13;;
3347;SDS011;1687;49.540;8.574;2023-02-26T04:36:43;3.40;;;1.30;;
3347;SDS011;1687;49.540;8.574;2023-02-26T04:39:09;1.90;;;1.23;;
3347;SDS011;1687;49.540;8.574;2023-02-26T04:41:35;5.33;;;2.37;;
3347;SDS011;1687;49.540;8.574;2023-02-26T04:44:02;4.37;;;1.77;;
3347;SDS011;1687;49.540;8.574;2023-02-26T04:46:28;3.57;;;1.63;;
3347;SDS011;1687;49.540;8.574;2023-02-26T04:48:55;1.80;;;1.47;;
3347;SDS011;1687;49.540;8.574;2023-02-26T04:51:20;1.80;;;1.30;;
3347;SDS011;1687;49.540;8.574;2023-02-26T04:53:46;8.10;;;2.10;;
3347;SDS011;1687;49.540;8.574;2023-02-26T04:56:12;5.37;;;2.70;;
3347;SDS011;1687;49.540;8.574;2023-02-26T04:58:38;2.57;;;1.63;;
3347;SDS011;1687;49.540;8.574;2023-02-26T05:01:04;2.33;;;1.40;;
3347;SDS011;1687;49.540;8.574;2023-02-26T05:03:30;3.60;;;1.73;;
3347;SDS011;1687;49.540;8.574;2023-02-26T05:05:55;2.90;;;1.37;;
3347;SDS011;1687;49.540;8.574;2023-02-26T05:08:21;1.50;;;1.00;;
3347;SDS011;1687;49.540;8.574;2023-02-26T05:10:49;3.67;;;2.10;;
3347;SDS011;1687;49.540;8.574;2023-02-26T05:13:16;2.10;;;1.30;;
3347;SDS011;1687;49.540;8.574;2023-02-26T05:15:43;3.37;;;1.60;;
3347;SDS011;1687;49.540;8.574;2023-02-26T05:18:08;9.23;;;3.03;;
3347;SDS011;1687;49.540;8.574;2023-02-26T05:20:34;6.40;;;1.73;;
3347;SDS011;1687;49.540;8.574;2023-02-26T05:23:00;3.10;;;1.77;;
3347;SDS011;1687;49.540;8.574;2023-02-26T05:25:25;4.90;;;2.10;;
3347;SDS011;1687;49.540;8.574;2023-02-26T05:27:51;8.43;;;3.00;;
3347;SDS011;1687;49.540;8.574;2023-02-26T05:30:17;9.30;;;2.03;;
3347;SDS011;1687;49.540;8.574;2023-02-26T05:32:43;4.53;;;2.40;;
3347;SDS011;1687;49.540;8.574;2023-02-26T05:35:08;6.17;;;2.53;;
3347;SDS011;1687;49.540;8.574;2023-02-26T05:37:35;9.67;;;3.50;;
3347;SDS011;1687;49.540;8.574;2023-02-26T05:40:02;5.60;;;2.40;;
3347;SDS011;1687;49.540;8.574;2023-02-26T05:42:30;4.47;;;2.30;;
3347;SDS011;1687;49.540;8.574;2023-02-26T05:44:56;3.63;;;1.63;;
3347;SDS011;1687;49.540;8.574;2023-02-26T05:47:22;3.73;;;2.00;;
3347;SDS011;1687;49.540;8.574;2023-02-26T05:49:48;5.00;;;3.10;;
3347;SDS011;1687;49.540;8.574;2023-02-26T05:52:14;5.00;;;2.93;;
3347;SDS011;1687;49.540;8.574;2023-02-26T05:54:40;6.83;;;2.50;;
3347;SDS011;1687;49.540;8.574;2023-02-26T05:57:05;16.03;;;2.67;;
3347;SDS011;1687;49.540;8.574;2023-02-26T05:59:31;2.57;;;1.80;;
3347;SDS011;1687;49.540;8.574;2023-02-26T06:01:57;5.33;;;2.20;;
3347;SDS011;1687;49.540;8.574;2023-02-26T06:04:22;8.90;;;3.70;;
3347;SDS011;1687;49.540;8.574;2023-02-26T06:06:48;5.07;;;2.50;;
3347;SDS011;1687;49.540;8.574;2023-02-26T06:09:14;1.87;;;1.40;;
3347;SDS011;1687;49.540;8.574;2023-02-26T06:11:40;3.63;;;1.40;;
3347;SDS011;1687;49.540;8.574;2023-02-26T06:14:05;4.13;;;1.57;;
3347;SDS011;1687;49.540;8.574;2023-02-26T06:16:31;2.60;;;2.13;;
3347;SDS011;1687;49.540;8.574;2023-02-26T06:18:59;2.40;;;1.57;;
3347;SDS011;1687;49.540;8.574;2023-02-26T06:21:26;3.07;;;2.07;;
3347;SDS011;1687;49.540;8.574;2023-02-26T06:23:51;6.47;;;2.23;;
3347;SDS011;1687;49.540;8.574;2023-02-26T06:26:17;5.23;;;3.10;;
3347;SDS011;1687;49.540;8.574;2023-02-26T06:28:43;2.70;;;1.70;;
3347;SDS011;1687;49.540;8.574;2023-02-26T06:31:08;7.80;;;3.97;;
3347;SDS011;1687;49.540;8.574;2023-02-26T06:33:34;4.57;;;2.13;;
3347;SDS011;1687;49.540;8.574;2023-02-26T06:36:00;6.93;;;2.63;;
3347;SDS011;1687;49.540;8.574;2023-02-26T06:38:27;7.40;;;2.53;;
3347;SDS011;1687;49.540;8.574;2023-02-26T06:40:53;5.63;;;2.20;;
3347;SDS011;1687;49.540;8.574;2023-02-26T06:43:19;8.00;;;2.20;;
3347;SDS011;1687;49.540;8.574;2023-02-26T06:45:45;5.80;;;3.20;;
3347;SDS011;1687;49.540;8.574;2023-02-26T06:48:10;10.87;;;5.90;;
3347;SDS011;1687;49.540;8.574;2023-02-26T06:50:36;11.60;;;3.53;;
3347;SDS011;1687;49.540;8.574;2023-02-26T06:53:02;13.87;;;4.37;;
3347;SDS011;1687;49.540;8.574;2023-02-26T06:55:28;3.90;;;2.10;;
3347;SDS011;1687;49.540;8.574;2023-02-26T06:57:54;5.10;;;3.67;;
3347;SDS011;1687;49.540;8.574;2023-02-26T07:00:21;7.07;;;3.70;;
3347;SDS011;1687;49.540;8.574;2023-02-26T07:02:48;9.50;;;3.10;;
3347;SDS011;1687;49.540;8.574;2023-02-26T07:05:15;13.20;;;3.13;;
3347;SDS011;1687;49.540;8.574;2023-02-26T07:07:41;8.90;;;3.53;;
3347;SDS011;1687;49.540;8.574;2023-02-26T07:10:07;9.60;;;4.03;;
3347;SDS011;1687;49.540;8.574;2023-02-26T07:12:35;6.70;;;3.23;;
3347;SDS011;1687;49.540;8.574;2023-02-26T07:15:02;6.57;;;4.30;;
3347;SDS011;1687;49.540;8.574;2023-02-26T07:17:30;3.70;;;2.50;;
3347;SDS011;1687;49.540;8.574;2023-02-26T07:19:56;6.70;;;3.60;;
3347;SDS011;1687;49.540;8.574;2023-02-26T07:22:22;11.33;;;2.67;;
3347;SDS011;1687;49.540;8.574;2023-02-26T07:24:47;7.33;;;3.17;;
3347;SDS011;1687;49.540;8.574;2023-02-26T07:27:14;7.47;;;3.40;;
3347;SDS011;1687;49.540;8.574;2023-02-26T07:29:39;5.07;;;2.70;;
3347;SDS011;1687;49.540;8.574;2023-02-26T07:32:05;6.03;;;3.50;;
3347;SDS011;1687;49.540;8.574;2023-02-26T07:34:31;4.13;;;2.30;;
3347;SDS011;1687;49.540;8.574;2023-02-26T07:36:57;11.80;;;3.50;;
3347;SDS011;1687;49.540;8.574;2023-02-26T07:39:23;4.03;;;2.80;;
3347;SDS011;1687;49.540;8.574;2023-02-26T07:41:51;25.20;;;2.40;;
3347;SDS011;1687;49.540;8.574;2023-02-26T07:44:17;4.93;;;1.87;;
3347;SDS011;1687;49.540;8.574;2023-02-26T07:46:42;6.80;;;2.03;;
3347;SDS011;1687;49.540;8.574;2023-02-26T07:49:08;5.97;;;2.87;;
3347;SDS011;1687;49.540;8.574;2023-02-26T07:51:34;4.97;;;2.07;;
3347;SDS011;1687;49.540;8.574;2023-02-26T07:54:00;3.77;;;1.17;;
3347;SDS011;1687;49.540;8.574;2023-02-26T07:56:27;3.73;;;2.20;;
3347;SDS011;1687;49.540;8.574;2023-02-26T07:58:52;4.40;;;1.47;;
3347;SDS011;1687;49.540;8.574;2023-02-26T08:01:18;2.33;;;1.57;;
3347;SDS011;1687;49.540;8.574;2023-02-26T08:03:43;1.80;;;1.17;;
3347;SDS011;1687;49.540;8.574;2023-02-26T08:06:09;3.10;;;1.47;;
3347;SDS011;1687;49.540;8.574;2023-02-26T08:08:35;2.50;;;1.53;;
3347;SDS011;1687;49.540;8.574;2023-02-26T08:11:01;3.67;;;1.57;;
3347;SDS011;1687;49.540;8.574;2023-02-26T08:13:27;1.73;;;1.00;;
3347;SDS011;1687;49.540;8.574;2023-02-26T08:15:52;4.93;;;1.90;;
3347;SDS011;1687;49.540;8.574;2023-02-26T08:18:18;3.07;;;1.60;;
3347;SDS011;1687;49.540;8.574;2023-02-26T08:20:44;5.17;;;2.80;;
3347;SDS011;1687;49.540;8.574;2023-02-26T08:23:10;5.60;;;1.40;;
3347;SDS011;1687;49.540;8.574;2023-02-26T08:25:36;2.63;;;1.30;;
3347;SDS011;1687;49.540;8.574;2023-02-26T08:28:03;2.47;;;1.60;;
3347;SDS011;1687;49.540;8.574;2023-02-26T08:30:29;9.53;;;2.20;;
3347;SDS011;1687;49.540;8.574;2023-02-26T08:32:55;3.40;;;1.60;;
3347;SDS011;1687;49.540;8.574;2023-02-26T08:35:20;3.10;;;1.57;;
3347;SDS011;1687;49.540;8.574;2023-02-26T08:37:46;3.00;;;1.43;;
3347;SDS011;1687;49.540;8.574;2023-02-26T08:40:12;2.07;;;1.33;;
3347;SDS011;1687;49.540;8.574;2023-02-26T08:42:38;3.40;;;1.53;;
3347;SDS011;1687;49.540;8.574;2023-02-26T08:45:04;1.93;;;1.20;;
3347;SDS011;1687;49.540;8.574;2023-02-26T08:47:30;2.43;;;1.17;;
3347;SDS011;1687;49.540;8.574;2023-02-26T08:49:56;4.63;;;1.87;;
3347;SDS011;1687;49.540;8.574;2023-02-26T08:52:23;2.50;;;1.40;;
3347;SDS011;1687;49.540;8.574;2023-02-26T08:54:48;5.93;;;2.83;;
3347;SDS011;1687;49.540;8.574;2023-02-26T08:57:14;2.33;;;1.20;;
3347;SDS011;1687;49.540;8.574;2023-02-26T08:59:40;9.43;;;1.40;;
3347;SDS011;1687;49.540;8.574;2023-02-26T09:02:06;2.80;;;1.20;;
3347;SDS011;1687;49.540;8.574;2023-02-26T09:04:35;2.50;;;1.63;;
3347;SDS011;1687;49.540;8.574;2023-02-26T09:07:00;2.23;;;1.57;;
3347;SDS011;1687;49.540;8.574;2023-02-26T09:09:26;3.67;;;2.07;;
3347;SDS011;1687;49.540;8.574;2023-02-26T09:11:52;2.33;;;1.10;;
3347;SDS011;1687;49.540;8.574;2023-02-26T09:14:17;4.70;;;1.30;;
3347;SDS011;1687;49.540;8.574;2023-02-26T09:16:43;4.13;;;3.50;;
3347;SDS011;1687;49.540;8.574;2023-02-26T09:19:09;1.87;;;1.17;;
3347;SDS011;1687;49.540;8.574;2023-02-26T09:21:35;2.40;;;1.27;;
3347;SDS011;1687;49.540;8.574;2023-02-26T09:24:00;2.40;;;1.10;;
3347;SDS011;1687;49.540;8.574;2023-02-26T09:26:26;2.60;;;1.50;;
3347;SDS011;1687;49.540;8.574;2023-02-26T09:28:52;3.20;;;1.80;;
3347;SDS011;1687;49.540;8.574;2023-02-26T09:31:17;4.30;;;2.27;;
3347;SDS011;1687;49.540;8.574;2023-02-26T09:33:43;2.70;;;1.03;;
3347;SDS011;1687;49.540;8.574;2023-02-26T09:36:09;3.83;;;1.10;;
3347;SDS011;1687;49.540;8.574;2023-02-26T09:38:34;6.10;;;2.17;;
3347;SDS011;1687;49.540;8.574;2023-02-26T09:41:01;2.77;;;1.57;;
3347;SDS011;1687;49.540;8.574;2023-02-26T09:49:24;4.03;;;1.37;;
3347;SDS011;1687;49.540;8.574;2023-02-26T09:52:04;3.00;;;2.03;;
3347;SDS011;1687;49.540;8.574;2023-02-26T09:57:58;5.77;;;2.37;;
3347;SDS011;1687;49.540;8.574;2023-02-26T10:00:36;1.70;;;1.17;;
3347;SDS011;1687;49.540;8.574;2023-02-26T10:06:38;3.90;;;1.07;;
3347;SDS011;1687;49.540;8.574;2023-02-26T10:09:19;2.87;;;1.33;;
3347;SDS011;1687;49.540;8.574;2023-02-26T10:12:19;3.60;;;1.70;;
3347;SDS011;1687;49.540;8.574;2023-02-26T10:17:34;2.03;;;1.00;;
3347;SDS011;1687;49.540;8.574;2023-02-26T10:23:27;3.43;;;1.40;;
3347;SDS011;1687;49.540;8.574;2023-02-26T10:31:57;2.37;;;0.90;;
3347;SDS011;1687;49.540;8.574;2023-02-26T10:34:50;5.40;;;1.20;;
3347;SDS011;1687;49.540;8.574;2023-02-26T10:37:32;1.73;;;1.10;;
3347;SDS011;1687;49.540;8.574;2023-02-26T10:40:41;3.93;;;1.50;;
3347;SDS011;1687;49.540;8.574;2023-02-26T10:43:22;8.20;;;1.23;;
3347;SDS011;1687;49.540;8.574;2023-02-26T10:49:53;2.50;;;1.57;;
3347;SDS011;1687;49.540;8.574;2023-02-26T10:52:24;2.50;;;1.47;;
3347;SDS011;1687;49.540;8.574;2023-02-26T10:54:57;3.00;;;1.23;;
3347;SDS011;1687;49.540;8.574;2023-02-26T10:57:34;2.87;;;1.00;;
3347;SDS011;1687;49.540;8.574;2023-02-26T11:00:04;2.90;;;1.40;;
3347;SDS011;1687;49.540;8.574;2023-02-26T11:05:12;4.73;;;1.70;;
3347;SDS011;1687;49.540;8.574;2023-02-26T11:07:45;2.50;;;1.10;;
3347;SDS011;1687;49.540;8.574;2023-02-26T11:10:17;2.93;;;0.93;;
3347;SDS011;1687;49.540;8.574;2023-02-26T11:12:48;6.20;;;1.33;;
3347;SDS011;1687;49.540;8.574;2023-02-26T11:15:17;1.97;;;1.10;;
3347;SDS011;1687;49.540;8.574;2023-02-26T11:17:47;2.60;;;1.03;;
3347;SDS011;1687;49.540;8.574;2023-02-26T11:20:28;2.77;;;1.10;;
3347;SDS011;1687;49.540;8.574;2023-02-26T11:23:03;1.60;;;0.80;;
3347;SDS011;1687;49.540;8.574;2023-02-26T11:25:36;1.90;;;1.00;;
3347;SDS011;1687;49.540;8.574;2023-02-26T11:28:04;2.13;;;1.00;;
3347;SDS011;1687;49.540;8.574;2023-02-26T11:30:45;1.50;;;0.67;;
3347;SDS011;1687;49.540;8.574;2023-02-26T11:33:15;2.10;;;1.60;;
3347;SDS011;1687;49.540;8.574;2023-02-26T11:36:05;1.40;;;0.70;;
3347;SDS011;1687;49.540;8.574;2023-02-26T11:38:54;2.37;;;1.07;;
3347;SDS011;1687;49.540;8.574;2023-02-26T11:41:25;3.87;;;0.90;;
3347;SDS011;1687;49.540;8.574;2023-02-26T11:43:59;1.30;;;0.70;;
3347;SDS011;1687;49.540;8.574;2023-02-26T11:46:28;1.63;;;1.00;;
3347;SDS011;1687;49.540;8.574;2023-02-26T11:48:55;1.80;;;1.00;;
3347;SDS011;1687;49.540;8.574;2023-02-26T11:51:24;2.57;;;1.17;;
3347;SDS011;1687;49.540;8.574;2023-02-26T11:53:54;2.87;;;1.00;;
3347;SDS011;1687;49.540;8.574;2023-02-26T11:59:22;3.00;;;1.53;;
3347;SDS011;1687;49.540;8.574;2023-02-26T12:01:49;1.77;;;0.93;;
3347;SDS011;1687;49.540;8.574;2023-02-26T12:04:18;1.60;;;0.80;;
3347;SDS011;1687;49.540;8.574;2023-02-26T12:06:52;2.13;;;0.87;;
3347;SDS011;1687;49.540;8.574;2023-02-26T12:09:20;3.70;;;1.30;;
3347;SDS011;1687;49.540;8.574;2023-02-26T12:12:05;1.60;;;0.90;;
3347;SDS011;1687;49.540;8.574;2023-02-26T12:14:52;2.57;;;1.27;;
3347;SDS011;1687;49.540;8.574;2023-02-26T12:20:36;1.60;;;1.10;;
3347;SDS011;1687;49.540;8.574;2023-02-26T12:26:49;4.57;;;1.20;;
3347;SDS011;1687;49.540;8.574;2023-02-26T12:32:35;2.00;;;1.20;;
3347;SDS011;1687;49.540;8.574;2023-02-26T12:43:54;1.70;;;0.93;;
3347;SDS011;1687;49.540;8.574;2023-02-26T12:46:33;1.73;;;0.90;;
3347;SDS011;1687;49.540;8.574;2023-02-26T12:49:19;2.63;;;1.00;;
3347;SDS011;1687;49.540;8.574;2023-02-26T12:55:03;1.70;;;1.20;;
3347;SDS011;1687;49.540;8.574;2023-02-26T12:58:03;1.70;;;0.70;;
3347;SDS011;1687;49.540;8.574;2023-02-26T13:04:09;1.40;;;0.70;;
3347;SDS011;1687;49.540;8.574;2023-02-26T13:12:54;1.63;;;0.77;;
3347;SDS011;1687;49.540;8.574;2023-02-26T13:16:16;1.20;;;0.70;;
3347;SDS011;1687;49.540;8.574;2023-02-26T13:21:50;3.40;;;1.00;;
3347;SDS011;1687;49.540;8.574;2023-02-26T13:24:27;1.50;;;0.80;;
3347;SDS011;1687;49.540;8.574;2023-02-26T13:27:03;1.20;;;0.70;;
3347;SDS011;1687;49.540;8.574;2023-02-26T13:29:38;3.90;;;1.30;;
3347;SDS011;1687;49.540;8.574;2023-02-26T13:32:18;3.13;;;1.10;;
3347;SDS011;1687;49.540;8.574;2023-02-26T13:37:21;1.40;;;0.90;;
3347;SDS011;1687;49.540;8.574;2023-02-26T13:42:33;4.03;;;1.10;;
3347;SDS011;1687;49.540;8.574;2023-02-26T13:45:37;1.73;;;0.90;;
3347;SDS011;1687;49.540;8.574;2023-02-26T13:48:42;1.60;;;0.90;;
3347;SDS011;1687;49.540;8.574;2023-02-26T13:51:48;1.53;;;0.90;;
3347;SDS011;1687;49.540;8.574;2023-02-26T14:06:46;1.40;;;0.73;;
3347;SDS011;1687;49.540;8.574;2023-02-26T14:19:41;1.47;;;0.90;;
3347;SDS011;1687;49.540;8.574;2023-02-26T14:22:41;2.33;;;1.00;;
3347;SDS011;1687;49.540;8.574;2023-02-26T14:27:47;2.27;;;1.00;;
3347;SDS011;1687;49.540;8.574;2023-02-26T14:30:27;1.70;;;0.90;;
3347;SDS011;1687;49.540;8.574;2023-02-26T14:35:39;2.70;;;0.87;;
3347;SDS011;1687;49.540;8.574;2023-02-26T14:38:33;11.27;;;1.00;;
3347;SDS011;1687;49.540;8.574;2023-02-26T14:41:11;11.83;;;1.10;;
3347;SDS011;1687;49.540;8.574;2023-02-26T14:43:56;1.10;;;0.60;;
3347;SDS011;1687;49.540;8.574;2023-02-26T14:46:32;1.60;;;0.70;;
3347;SDS011;1687;49.540;8.574;2023-02-26T14:48:59;2.47;;;1.07;;
3347;SDS011;1687;49.540;8.574;2023-02-26T14:54:42;4.83;;;1.00;;
3347;SDS011;1687;49.540;8.574;2023-02-26T15:00:48;2.10;;;0.90;;
3347;SDS011;1687;49.540;8.574;2023-02-26T15:15:37;1.90;;;1.20;;
3347;SDS011;1687;49.540;8.574;2023-02-26T15:18:45;2.83;;;1.30;;
3347;SDS011;1687;49.540;8.574;2023-02-26T15:24:28;2.30;;;1.00;;
3347;SDS011;1687;49.540;8.574;2023-02-26T15:26:57;2.07;;;0.90;;
3347;SDS011;1687;49.540;8.574;2023-02-26T15:29:31;2.27;;;1.23;;
3347;SDS011;1687;49.540;8.574;2023-02-26T15:34:56;3.23;;;1.53;;
3347;SDS011;1687;49.540;8.574;2023-02-26T15:37:35;1.80;;;0.87;;
3347;SDS011;1687;49.540;8.574;2023-02-26T15:40:04;3.07;;;0.90;;
3347;SDS011;1687;49.540;8.574;2023-02-26T15:42:33;1.80;;;0.93;;
3347;SDS011;1687;49.540;8.574;2023-02-26T15:45:04;2.30;;;1.10;;
3347;SDS011;1687;49.540;8.574;2023-02-26T15:47:37;3.53;;;1.87;;
3347;SDS011;1687;49.540;8.574;2023-02-26T15:50:04;1.80;;;0.87;;
3347;SDS011;1687;49.540;8.574;2023-02-26T15:52:30;1.53;;;0.90;;
3347;SDS011;1687;49.540;8.574;2023-02-26T15:55:02;2.30;;;0.80;;
3347;SDS011;1687;49.540;8.574;2023-02-26T15:57:30;2.00;;;1.00;;
3347;SDS011;1687;49.540;8.574;2023-02-26T16:00:00;1.50;;;0.90;;
3347;SDS011;1687;49.540;8.574;2023-02-26T16:02:32;2.03;;;1.10;;
3347;SDS011;1687;49.540;8.574;2023-02-26T16:05:00;1.47;;;0.90;;
3347;SDS011;1687;49.540;8.574;2023-02-26T16:07:29;1.53;;;0.70;;
3347;SDS011;1687;49.540;8.574;2023-02-26T16:09:56;1.53;;;0.80;;
3347;SDS011;1687;49.540;8.574;2023-02-26T16:12:36;1.93;;;1.10;;
3347;SDS011;1687;49.540;8.574;2023-02-26T16:15:10;3.43;;;1.00;;
3347;SDS011;1687;49.540;8.574;2023-02-26T16:17:43;4.30;;;0.90;;
3347;SDS011;1687;49.540;8.574;2023-02-26T16:20:14;1.40;;;0.80;;
3347;SDS011;1687;49.540;8.574;2023-02-26T16:22:54;1.30;;;0.80;;
3347;SDS011;1687;49.540;8.574;2023-02-26T16:25:33;1.60;;;0.90;;
3347;SDS011;1687;49.540;8.574;2023-02-26T16:30:32;2.67;;;1.73;;
3347;SDS011;1687;49.540;8.574;2023-02-26T16:33:01;2.27;;;1.07;;
3347;SDS011;1687;49.540;8.574;2023-02-26T16:35:36;1.30;;;0.80;;
3347;SDS011;1687;49.540;8.574;2023-02-26T16:41:05;3.60;;;1.80;;
3347;SDS011;1687;49.540;8.574;2023-02-26T16:43:41;2.00;;;1.30;;
3347;SDS011;1687;49.540;8.574;2023-02-26T16:46:32;1.93;;;1.00;;
3347;SDS011;1687;49.540;8.574;2023-02-26T16:49:30;1.40;;;0.90;;
3347;SDS011;1687;49.540;8.574;2023-02-26T16:51:57;3.70;;;1.30;;
3347;SDS011;1687;49.540;8.574;2023-02-26T16:54:24;1.40;;;0.90;;
3347;SDS011;1687;49.540;8.574;2023-02-26T16:57:02;1.47;;;0.90;;
3347;SDS011;1687;49.540;8.574;2023-02-26T16:59:38;6.27;;;2.70;;
3347;SDS011;1687;49.540;8.574;2023-02-26T17:02:11;10.00;;;1.23;;
3347;SDS011;1687;49.540;8.574;2023-02-26T17:04:42;5.97;;;2.40;;
3347;SDS011;1687;49.540;8.574;2023-02-26T17:09:56;2.23;;;0.90;;
3347;SDS011;1687;49.540;8.574;2023-02-26T17:12:42;2.80;;;0.90;;
3347;SDS011;1687;49.540;8.574;2023-02-26T17:17:51;1.20;;;0.70;;
3347;SDS011;1687;49.540;8.574;2023-02-26T17:20:20;2.27;;;1.00;;
3347;SDS011;1687;49.540;8.574;2023-02-26T17:22:47;2.30;;;0.90;;
3347;SDS011;1687;49.540;8.574;2023-02-26T17:25:15;1.73;;;0.70;;
3347;SDS011;1687;49.540;8.574;2023-02-26T17:27:43;2.50;;;1.27;;
3347;SDS011;1687;49.540;8.574;2023-02-26T17:30:11;1.73;;;0.97;;
3347;SDS011;1687;49.540;8.574;2023-02-26T17:32:40;1.30;;;0.80;;
3347;SDS011;1687;49.540;8.574;2023-02-26T17:35:06;6.97;;;1.33;;
3347;SDS011;1687;49.540;8.574;2023-02-26T17:37:33;2.40;;;0.93;;
3347;SDS011;1687;49.540;8.574;2023-02-26T17:40:05;4.43;;;1.03;;
3347;SDS011;1687;49.540;8.574;2023-02-26T17:42:51;1.57;;;0.93;;
3347;SDS011;1687;49.540;8.574;2023-02-26T17:45:18;2.30;;;1.37;;
3347;SDS011;1687;49.540;8.574;2023-02-26T17:47:44;1.70;;;1.00;;
3347;SDS011;1687;49.540;8.574;2023-02-26T17:50:19;3.63;;;0.87;;
3347;SDS011;1687;49.540;8.574;2023-02-26T17:53:00;1.40;;;0.83;;
3347;SDS011;1687;49.540;8.574;2023-02-26T17:55:27;3.03;;;1.03;;
3347;SDS011;1687;49.540;8.574;2023-02-26T17:57:54;12.43;;;1.77;;
3347;SDS011;1687;49.540;8.574;2023-02-26T18:00:21;1.80;;;0.93;;
3347;SDS011;1687;49.540;8.574;2023-02-26T18:02:47;2.53;;;0.90;;
3347;SDS011;1687;49.540;8.574;2023-02-26T18:05:14;7.57;;;1.77;;
3347;SDS011;1687;49.540;8.574;2023-02-26T18:07:40;1.67;;;0.90;;
3347;SDS011;1687;49.540;8.574;2023-02-26T18:10:06;1.87;;;0.80;;
3347;SDS011;1687;49.540;8.574;2023-02-26T18:12:36;1.73;;;0.80;;
3347;SDS011;1687;49.540;8.574;2023-02-26T18:15:02;2.30;;;1.23;;
3347;SDS011;1687;49.540;8.574;2023-02-26T18:17:29;19.53;;;1.23;;
3347;SDS011;1687;49.540;8.574;2023-02-26T18:19:55;1.20;;;0.70;;
3347;SDS011;1687;49.540;8.574;2023-02-26T18:22:22;1.30;;;0.80;;
3347;SDS011;1687;49.540;8.574;2023-02-26T18:24:50;2.37;;;0.90;;
3347;SDS011;1687;49.540;8.574;2023-02-26T18:27:21;1.60;;;1.07;;
3347;SDS011;1687;49.540;8.574;2023-02-26T18:29:48;2.23;;;1.10;;
3347;SDS011;1687;49.540;8.574;2023-02-26T18:32:15;1.60;;;1.33;;
3347;SDS011;1687;49.540;8.574;2023-02-26T18:34:43;1.10;;;0.60;;
3347;SDS011;1687;49.540;8.574;2023-02-26T18:37:11;5.30;;;1.10;;
3347;SDS011;1687;49.540;8.574;2023-02-26T18:39:39;2.00;;;1.07;;
3347;SDS011;1687;49.540;8.574;2023-02-26T18:42:06;1.87;;;0.80;;
3347;SDS011;1687;49.540;8.574;2023-02-26T18:44:44;1.37;;;0.73;;
3347;SDS011;1687;49.540;8.574;2023-02-26T18:47:11;1.20;;;0.70;;
3347;SDS011;1687;49.540;8.574;2023-02-26T18:49:37;1.17;;;0.70;;
3347;SDS011;1687;49.540;8.574;2023-02-26T18:52:02;2.67;;;0.80;;